createdAt,value
2022-09-24T00:01:39.046Z,82.48
2022-09-24T00:04:11.678Z,82.83
2022-09-24T00:06:44.524Z,82.50
2022-09-24T00:09:15.137Z,82.51
2022-09-24T00:11:46.019Z,83.26
2022-09-24T00:14:19.200Z,83.32
2022-09-24T00:16:50.076Z,83.95
2022-09-24T00:19:19.710Z,83.63
2022-09-24T00:21:49.342Z,83.50
2022-09-24T00:24:32.773Z,83.01
2022-09-24T00:27:03.168Z,83.06
2022-09-24T00:29:36.241Z,82.90
2022-09-24T00:32:06.522Z,82.57
2022-09-24T00:34:36.401Z,82.47
2022-09-24T00:37:06.110Z,82.75
2022-09-24T00:39:35.764Z,83.48
2022-09-24T00:42:05.416Z,83.26
2022-09-24T00:44:54.814Z,82.94
2022-09-24T00:47:35.252Z,84.37
2022-09-24T00:50:15.678Z,84.82
2022-09-24T00:52:49.698Z,85.28
2022-09-24T00:55:23.728Z,85.80
2022-09-24T00:57:57.739Z,85.99
2022-09-24T01:00:30.357Z,86.19
2022-09-24T01:03:05.095Z,86.69
2022-09-24T01:05:35.319Z,87.00
2022-09-24T01:08:05.415Z,87.72
2022-09-24T01:10:54.042Z,87.47
2022-09-24T01:13:36.578Z,88.29
2022-09-24T01:16:19.645Z,89.43
2022-09-24T01:18:58.132Z,89.33
2022-09-24T01:21:35.112Z,90.24
2022-09-24T01:24:26.549Z,90.61
2022-09-24T01:27:08.742Z,90.96
2022-09-24T01:29:52.431Z,91.29
2022-09-24T01:32:32.192Z,91.49
2022-09-24T01:35:06.756Z,91.50
2022-09-24T01:37:39.068Z,91.46
2022-09-24T01:40:12.154Z,91.43
2022-09-24T01:42:45.399Z,91.20
2022-09-24T01:45:19.863Z,90.85
2022-09-24T01:47:50.204Z,90.63
2022-09-24T01:50:22.821Z,90.56
2022-09-24T01:52:58.687Z,90.23
2022-09-24T01:55:31.336Z,91.11
2022-09-24T01:58:04.945Z,92.10
2022-09-24T02:00:40.857Z,91.31
2022-09-24T02:03:14.029Z,91.75
2022-09-24T02:05:49.984Z,91.28
2022-09-24T02:08:22.768Z,91.68
2022-09-24T02:10:58.205Z,91.54
2022-09-24T02:13:32.314Z,91.70
2022-09-24T02:16:06.702Z,92.08
2022-09-24T02:18:41.800Z,91.19
2022-09-24T02:21:14.051Z,91.16
2022-09-24T02:23:50.683Z,91.20
2022-09-24T02:26:20.427Z,91.86
2022-09-24T02:28:50.292Z,91.96
2022-09-24T02:31:27.520Z,91.82
2022-09-24T02:34:11.017Z,91.68
2022-09-24T02:36:41.961Z,91.73
2022-09-24T02:39:11.590Z,91.59
2022-09-24T02:41:42.680Z,91.54
2022-09-24T02:44:12.748Z,91.61
2022-09-24T02:46:45.056Z,91.66
2022-09-24T02:49:15.701Z,92.12
2022-09-24T02:51:46.601Z,91.98
2022-09-24T02:54:16.282Z,92.60
2022-09-24T02:56:45.948Z,93.09
2022-09-24T02:59:15.568Z,93.13
2022-09-24T03:01:48.098Z,92.89
2022-09-24T03:04:18.230Z,93.16
2022-09-24T03:06:47.921Z,93.11
2022-09-24T03:09:17.636Z,93.37
2022-09-24T03:11:47.422Z,93.00
2022-09-24T03:14:17.062Z,93.15
2022-09-24T03:16:49.285Z,92.46
2022-09-24T03:19:18.898Z,93.86
2022-09-24T03:21:48.549Z,93.39
2022-09-24T03:24:18.202Z,93.04
2022-09-24T03:26:47.982Z,93.26
2022-09-24T03:29:37.636Z,93.47
2022-09-24T03:32:07.313Z,93.75
2022-09-24T03:34:36.943Z,93.83
2022-09-24T03:37:07.111Z,94.13
2022-09-24T03:39:36.746Z,93.81
2022-09-24T03:42:06.609Z,94.00
2022-09-24T03:44:36.257Z,93.58
2022-09-24T03:47:05.899Z,93.65
2022-09-24T03:49:38.116Z,93.16
2022-09-24T03:52:07.761Z,93.05
2022-09-24T03:54:37.373Z,92.87
2022-09-24T03:57:07.074Z,93.43
2022-09-24T03:59:36.721Z,93.53
2022-09-24T04:02:06.388Z,93.63
2022-09-24T04:04:38.670Z,93.06
2022-09-24T04:07:08.914Z,92.94
2022-09-24T04:09:38.577Z,92.67
2022-09-24T04:12:08.307Z,93.21
2022-09-24T04:14:37.948Z,92.60
2022-09-24T04:17:07.690Z,92.89
2022-09-24T04:19:40.518Z,92.49
2022-09-24T04:22:10.231Z,92.15
2022-09-24T04:24:40.573Z,93.25
2022-09-24T04:27:10.188Z,93.41
2022-09-24T04:29:39.822Z,93.39
2022-09-24T04:32:09.481Z,93.37
2022-09-24T04:34:41.694Z,93.67
2022-09-24T04:37:11.945Z,93.85
2022-09-24T04:39:41.924Z,93.63
2022-09-24T04:42:11.569Z,93.40
2022-09-24T04:44:41.183Z,93.07
2022-09-24T04:47:11.564Z,93.18
2022-09-24T04:49:46.452Z,93.44
2022-09-24T04:52:17.566Z,93.54
2022-09-24T04:54:48.225Z,93.22
2022-09-24T04:57:17.837Z,93.08
2022-09-24T04:59:47.725Z,93.13
2022-09-24T05:02:18.696Z,93.08
2022-09-24T05:04:51.063Z,92.97
2022-09-24T05:07:20.766Z,92.98
2022-09-24T05:09:50.444Z,93.18
2022-09-24T05:12:20.609Z,93.05
2022-09-24T05:14:50.405Z,93.13
2022-09-24T05:17:20.495Z,93.52
2022-09-24T05:19:52.735Z,93.45
2022-09-24T05:22:22.383Z,93.57
2022-09-24T05:24:52.040Z,93.30
2022-09-24T05:27:21.795Z,93.20
2022-09-24T05:29:51.781Z,93.24
2022-09-24T05:32:22.775Z,93.81
2022-09-24T05:34:55.200Z,93.48
2022-09-24T05:37:24.872Z,93.37
2022-09-24T05:39:54.904Z,93.10
2022-09-24T05:42:24.639Z,93.28
2022-09-24T05:44:54.329Z,92.92
2022-09-24T05:47:24.001Z,93.07
2022-09-24T05:49:56.339Z,92.85
2022-09-24T05:52:26.089Z,93.38
2022-09-24T05:54:56.505Z,92.83
2022-09-24T05:57:26.158Z,92.78
2022-09-24T05:59:56.114Z,93.49
2022-09-24T06:02:25.941Z,94.14
2022-09-24T06:04:58.238Z,94.77
2022-09-24T06:07:27.961Z,94.45
2022-09-24T06:09:59.252Z,94.35
2022-09-24T06:12:29.016Z,93.81
2022-09-24T06:14:58.691Z,93.72
2022-09-24T06:17:28.796Z,94.27
2022-09-24T06:20:01.074Z,94.10
2022-09-24T06:22:30.921Z,94.50
2022-09-24T06:25:00.615Z,94.68
2022-09-24T06:27:30.317Z,95.25
2022-09-24T06:30:00.106Z,95.89
2022-09-24T06:32:29.894Z,96.04
2022-09-24T06:35:02.157Z,96.28
2022-09-24T06:37:31.849Z,96.70
2022-09-24T06:40:01.551Z,96.98
2022-09-24T06:42:31.282Z,96.72
2022-09-24T06:45:00.945Z,96.99
2022-09-24T06:47:33.865Z,96.49
2022-09-24T06:50:06.762Z,95.88
2022-09-24T06:52:37.770Z,95.59
2022-09-24T06:55:08.600Z,94.85
2022-09-24T06:57:38.329Z,94.47
2022-09-24T07:00:09.474Z,93.94
2022-09-24T07:02:39.390Z,93.97
2022-09-24T07:05:12.699Z,94.53
2022-09-24T07:07:42.854Z,95.73
2022-09-24T07:10:13.437Z,96.67
2022-09-24T07:12:44.839Z,97.04
2022-09-24T07:15:14.606Z,97.21
2022-09-24T07:17:45.368Z,96.92
2022-09-24T07:20:17.671Z,96.68
2022-09-24T07:22:47.421Z,97.67
2022-09-24T07:25:17.228Z,98.55
2022-09-24T07:27:46.948Z,99.11
2022-09-24T07:30:17.239Z,98.12
2022-09-24T07:32:47.020Z,96.77
2022-09-24T07:35:21.135Z,96.59
2022-09-24T07:37:50.835Z,96.59
2022-09-24T07:40:22.177Z,96.95
2022-09-24T07:42:51.970Z,96.96
2022-09-24T07:45:21.662Z,95.56
2022-09-24T07:47:51.396Z,94.92
2022-09-24T07:50:23.899Z,95.03
2022-09-24T07:52:53.701Z,94.85
2022-09-24T07:55:23.476Z,94.85
2022-09-24T07:57:55.168Z,95.29
2022-09-24T08:00:26.805Z,95.21
2022-09-24T08:02:56.597Z,94.72
2022-09-24T08:05:28.998Z,95.04
2022-09-24T08:07:59.900Z,95.34
2022-09-24T08:10:30.724Z,96.11
2022-09-24T08:13:04.257Z,95.50
2022-09-24T08:15:33.957Z,95.67
2022-09-24T08:18:07.715Z,95.20
2022-09-24T08:20:40.850Z,95.67
2022-09-24T08:23:12.775Z,95.88
2022-09-24T08:25:42.499Z,95.10
2022-09-24T08:28:13.430Z,94.46
2022-09-24T08:30:43.268Z,94.32
2022-09-24T08:33:13.483Z,94.43
2022-09-24T08:35:45.872Z,94.57
2022-09-24T08:38:15.648Z,94.75
2022-09-24T08:40:49.444Z,94.47
2022-09-24T08:43:35.554Z,93.37
2022-09-24T08:46:27.319Z,94.30
2022-09-24T08:48:58.337Z,95.58
2022-09-24T08:51:38.100Z,92.53
2022-09-24T08:54:12.455Z,93.51
2022-09-24T08:56:46.841Z,92.39
2022-09-24T08:59:27.207Z,92.54
2022-09-24T09:02:13.513Z,92.92
2022-09-24T09:04:55.419Z,85.31
2022-09-24T09:07:33.851Z,89.55
2022-09-24T09:10:06.211Z,91.82
2022-09-24T09:12:40.952Z,92.25
2022-09-24T09:15:16.360Z,93.11
2022-09-24T09:17:50.768Z,94.55
2022-09-24T09:20:23.849Z,94.93
2022-09-24T09:22:56.185Z,96.14
2022-09-24T09:25:28.582Z,94.33
2022-09-24T09:28:03.134Z,93.49
2022-09-24T09:30:43.802Z,93.86
2022-09-24T09:33:31.067Z,93.53
2022-09-24T09:36:18.304Z,94.54
2022-09-24T09:38:57.365Z,95.95
2022-09-24T09:41:36.533Z,96.12
2022-09-24T09:44:16.064Z,95.62
2022-09-24T09:46:54.016Z,95.79
2022-09-24T09:49:25.546Z,95.43
2022-09-24T09:51:59.814Z,95.52
2022-09-24T09:54:42.108Z,95.00
2022-09-24T09:57:18.228Z,95.38
2022-09-24T09:59:50.003Z,95.31
2022-09-24T10:02:30.342Z,94.08
2022-09-24T10:05:02.282Z,95.30
2022-09-24T10:07:32.437Z,94.80
2022-09-24T10:10:19.249Z,93.88
2022-09-24T10:12:49.133Z,94.82
2022-09-24T10:15:20.997Z,94.91
2022-09-24T10:17:53.371Z,93.80
2022-09-24T10:20:27.785Z,94.39
2022-09-24T10:23:00.722Z,94.69
2022-09-24T10:25:36.305Z,94.58
2022-09-24T10:28:26.367Z,94.51
2022-09-24T10:30:59.580Z,94.21
2022-09-24T10:33:30.193Z,93.91
2022-09-24T10:36:08.195Z,93.59
2022-09-24T10:38:38.001Z,94.92
2022-09-24T10:41:19.901Z,94.92
2022-09-24T10:43:56.184Z,94.17
2022-09-24T10:47:00.131Z,93.60
2022-09-24T10:49:43.550Z,94.15
2022-09-24T10:52:28.189Z,95.19
2022-09-24T10:55:08.291Z,95.06
2022-09-24T10:57:49.518Z,94.95
2022-09-24T11:00:22.777Z,95.00
2022-09-24T11:03:08.308Z,95.22
2022-09-24T11:05:45.058Z,95.81
2022-09-24T11:08:26.340Z,96.10
2022-09-24T11:11:10.231Z,96.46
2022-09-24T11:13:51.747Z,96.53
2022-09-24T11:16:47.486Z,96.94
2022-09-24T11:19:30.298Z,97.15
2022-09-24T11:22:12.299Z,97.47
2022-09-24T11:25:05.674Z,97.02
2022-09-24T11:27:48.041Z,97.90
2022-09-24T11:30:22.629Z,97.30
2022-09-24T11:33:09.562Z,97.50
2022-09-24T11:35:59.652Z,98.49
2022-09-24T11:38:42.668Z,97.95
2022-09-24T11:41:25.684Z,98.08
2022-09-24T11:44:18.745Z,98.21
2022-09-24T11:47:06.169Z,99.43
2022-09-24T11:49:49.848Z,100.00
2022-09-24T11:52:31.791Z,99.64
2022-09-24T11:55:07.633Z,99.92
2022-09-24T11:57:42.235Z,100.00
2022-09-24T12:00:18.126Z,100.00
2022-09-24T12:02:53.524Z,99.31
2022-09-24T12:05:32.153Z,100.00
2022-09-24T12:08:07.880Z,99.84
2022-09-24T12:10:46.175Z,99.51
2022-09-24T12:13:21.396Z,99.45
2022-09-24T12:15:56.414Z,99.90
2022-09-24T12:18:32.311Z,99.61
2022-09-24T12:21:07.265Z,98.73
2022-09-24T12:23:42.755Z,97.67
2022-09-24T12:26:16.393Z,98.55
2022-09-24T12:29:08.262Z,98.00
2022-09-24T12:31:59.026Z,98.64
2022-09-24T12:34:43.398Z,98.07
2022-09-24T12:37:18.274Z,97.69
2022-09-24T12:39:53.098Z,97.47
2022-09-24T12:42:26.047Z,97.42
2022-09-24T12:45:00.879Z,97.75
2022-09-24T12:47:33.875Z,97.65
2022-09-24T12:50:09.245Z,97.18
2022-09-24T12:52:43.009Z,97.71
2022-09-24T12:55:23.718Z,97.43
2022-09-24T12:57:56.955Z,97.69
2022-09-24T13:00:41.253Z,97.69
2022-09-24T13:03:33.876Z,96.72
2022-09-24T13:06:21.365Z,97.34
2022-09-24T13:08:51.179Z,96.76
2022-09-24T13:11:37.478Z,95.98
2022-09-24T13:14:21.728Z,96.09
2022-09-24T13:16:54.226Z,96.33
2022-09-24T13:19:29.194Z,96.62
2022-09-24T13:22:03.025Z,97.34
2022-09-24T13:24:48.426Z,97.17
2022-09-24T13:27:27.371Z,96.25
2022-09-24T13:30:08.518Z,96.70
2022-09-24T13:32:43.775Z,97.74
2022-09-24T13:35:23.711Z,98.17
2022-09-24T13:38:04.023Z,97.52
2022-09-24T13:40:40.004Z,96.97
2022-09-24T13:43:17.437Z,97.24
2022-09-24T13:45:48.190Z,98.05
2022-09-24T13:48:28.240Z,97.11
2022-09-24T13:50:59.048Z,98.01
2022-09-24T13:53:36.525Z,98.12
2022-09-24T13:56:09.436Z,99.34
2022-09-24T13:58:41.755Z,99.67
2022-09-24T14:01:17.151Z,99.17
2022-09-24T14:03:56.175Z,99.92
2022-09-24T14:06:37.682Z,99.73
2022-09-24T14:09:30.149Z,100.00
2022-09-24T14:12:02.882Z,100.00
2022-09-24T14:14:38.039Z,100.00
2022-09-24T14:17:12.333Z,100.00
2022-09-24T14:19:46.274Z,100.00
2022-09-24T14:22:23.592Z,100.00
2022-09-24T14:25:03.192Z,100.00
2022-09-24T14:27:41.944Z,100.00
2022-09-24T14:30:22.300Z,100.00
2022-09-24T14:32:58.572Z,100.00
2022-09-24T14:35:34.171Z,100.00
2022-09-24T14:38:08.971Z,100.00
2022-09-24T14:40:47.738Z,100.00
2022-09-24T14:43:21.638Z,100.00
2022-09-24T14:45:53.798Z,100.00
2022-09-24T14:48:31.184Z,100.00
2022-09-24T14:51:01.576Z,100.00
2022-09-24T14:53:36.108Z,100.00
2022-09-24T14:56:23.221Z,100.00
2022-09-24T14:58:53.377Z,100.00
2022-09-24T15:01:26.873Z,100.00
2022-09-24T15:04:00.416Z,100.00
2022-09-24T15:06:32.239Z,100.00
2022-09-24T15:09:03.851Z,100.00
2022-09-24T15:11:43.886Z,100.00
2022-09-24T15:14:27.310Z,100.00
2022-09-24T15:16:58.273Z,100.00
2022-09-24T15:19:30.965Z,100.00
2022-09-24T15:22:02.785Z,100.00
2022-09-24T15:24:32.654Z,100.00
2022-09-24T15:27:07.567Z,100.00
2022-09-24T15:29:37.328Z,100.00
2022-09-24T15:32:17.728Z,100.00
2022-09-24T15:34:48.430Z,100.00
2022-09-24T15:37:20.906Z,100.00
2022-09-24T15:39:51.401Z,100.00
2022-09-24T15:42:26.189Z,100.00
2022-09-24T15:44:56.600Z,100.00
2022-09-24T15:47:26.331Z,100.00
2022-09-24T15:49:57.072Z,100.00
2022-09-24T15:52:29.221Z,100.00
2022-09-24T15:55:00.854Z,100.00
2022-09-24T15:57:33.184Z,100.00
2022-09-24T16:00:02.864Z,100.00
2022-09-24T16:02:36.325Z,100.00
2022-09-24T16:05:06.536Z,100.00
2022-09-24T16:07:36.299Z,100.00
2022-09-24T16:10:06.798Z,100.00
2022-09-24T16:12:39.378Z,100.00
2022-09-24T16:15:10.707Z,100.00
2022-09-24T16:17:41.099Z,100.00
2022-09-24T16:20:11.629Z,100.00
2022-09-24T16:22:41.342Z,100.00
2022-09-24T16:25:11.318Z,100.00
2022-09-24T16:27:44.050Z,100.00
2022-09-24T16:30:14.209Z,100.00
2022-09-24T16:32:43.954Z,100.00
2022-09-24T16:35:13.818Z,100.00
2022-09-24T16:37:44.122Z,100.00
2022-09-24T16:40:16.046Z,100.00
2022-09-24T16:42:48.317Z,100.00
2022-09-24T16:45:18.316Z,100.00
2022-09-24T16:47:48.978Z,100.00
2022-09-24T16:50:23.667Z,100.00
2022-09-24T16:52:55.347Z,100.00
2022-09-24T16:55:26.829Z,100.00
2022-09-24T16:58:01.121Z,100.00
2022-09-24T17:00:30.836Z,100.00
2022-09-24T17:03:00.763Z,100.00
2022-09-24T17:05:33.942Z,100.00
2022-09-24T17:08:04.071Z,100.00
2022-09-24T17:10:31.485Z,100.00
2022-09-24T17:13:03.826Z,100.00
2022-09-24T17:15:34.357Z,100.00
2022-09-24T17:18:05.270Z,100.00
2022-09-24T17:20:35.905Z,100.00
2022-09-24T17:23:08.153Z,100.00
2022-09-24T17:25:38.781Z,100.00
2022-09-24T17:28:12.378Z,100.00
2022-09-24T17:30:46.291Z,100.00
2022-09-24T17:33:41.819Z,100.00
2022-09-24T17:36:11.114Z,100.00
2022-09-24T17:38:42.657Z,100.00
2022-09-24T17:41:16.162Z,100.00
2022-09-24T17:43:49.306Z,100.00
2022-09-24T17:46:25.150Z,100.00
2022-09-24T17:48:58.871Z,100.00
2022-09-24T17:51:32.655Z,100.00
2022-09-24T17:54:04.052Z,100.00
2022-09-24T17:56:38.810Z,100.00
2022-09-24T17:59:13.402Z,100.00
2022-09-24T18:01:45.632Z,100.00
2022-09-24T18:04:17.379Z,100.00
2022-09-24T18:06:48.473Z,100.00
2022-09-24T18:09:20.053Z,100.00
2022-09-24T18:11:51.654Z,100.00
2022-09-24T18:14:26.423Z,100.00
2022-09-24T18:16:56.486Z,100.00
2022-09-24T18:19:27.438Z,100.00
2022-09-24T18:21:59.276Z,100.00
2022-09-24T18:24:29.141Z,100.00
2022-09-24T18:26:59.019Z,100.00
2022-09-24T18:29:32.901Z,100.00
2022-09-24T18:32:02.647Z,100.00
2022-09-24T18:34:32.537Z,100.00
2022-09-24T18:37:02.229Z,100.00
2022-09-24T18:39:31.950Z,100.00
2022-09-24T18:42:01.649Z,100.00
2022-09-24T18:44:34.112Z,100.00
2022-09-24T18:47:03.745Z,100.00
2022-09-24T18:49:33.513Z,100.00
2022-09-24T18:52:03.575Z,100.00
2022-09-24T18:54:33.462Z,100.00
2022-09-24T18:57:03.196Z,100.00
2022-09-24T18:59:44.377Z,100.00
2022-09-24T19:02:15.091Z,100.00
2022-09-24T19:04:45.948Z,100.00
2022-09-24T19:07:16.577Z,100.00
2022-09-24T19:09:46.752Z,100.00
2022-09-24T19:12:16.408Z,100.00
2022-09-24T19:14:49.783Z,100.00
2022-09-24T19:17:19.591Z,100.00
2022-09-24T19:19:52.467Z,100.00
2022-09-24T19:22:22.366Z,100.00
2022-09-24T19:24:53.037Z,100.00
2022-09-24T19:27:22.633Z,100.00
2022-09-24T19:29:55.871Z,100.00
2022-09-24T19:32:26.624Z,100.00
2022-09-24T19:34:56.740Z,100.00
2022-09-24T19:37:26.449Z,100.00
2022-09-24T19:39:56.120Z,100.00
2022-09-24T19:42:26.674Z,100.00
2022-09-24T19:44:58.987Z,100.00
2022-09-24T19:47:28.733Z,100.00
2022-09-24T19:49:58.481Z,100.00
2022-09-24T19:52:28.207Z,100.00
2022-09-24T19:54:57.953Z,100.00
2022-09-24T19:57:27.982Z,100.00
2022-09-24T20:00:00.312Z,100.00
2022-09-24T20:02:30.142Z,100.00
2022-09-24T20:04:59.899Z,100.00
2022-09-24T20:07:29.619Z,100.00
2022-09-24T20:09:59.328Z,100.00
2022-09-24T20:12:29.580Z,100.00
2022-09-24T20:15:02.274Z,100.00
2022-09-24T20:17:33.981Z,100.00
2022-09-24T20:20:04.147Z,100.00
2022-09-24T20:22:35.004Z,100.00
2022-09-24T20:25:04.646Z,100.00
2022-09-24T20:27:47.502Z,100.00
2022-09-24T20:30:23.969Z,100.00
2022-09-24T20:32:54.650Z,100.00
2022-09-24T20:35:24.292Z,100.00
2022-09-24T20:37:53.992Z,100.00
2022-09-24T20:40:23.757Z,100.00
2022-09-24T20:42:53.498Z,100.00
2022-09-24T20:45:25.817Z,100.00
2022-09-24T20:47:55.554Z,100.00
2022-09-24T20:50:25.195Z,100.00
2022-09-24T20:52:54.975Z,100.00
2022-09-24T20:55:24.993Z,100.00
2022-09-24T20:57:54.888Z,100.00
2022-09-24T21:00:34.154Z,100.00
2022-09-24T21:03:20.015Z,100.00
2022-09-24T21:05:55.334Z,100.00
2022-09-24T21:08:24.997Z,100.00
2022-09-24T21:11:03.079Z,100.00
2022-09-24T21:13:33.845Z,100.00
2022-09-24T21:16:06.640Z,100.00
2022-09-24T21:18:40.647Z,100.00
2022-09-24T21:21:14.343Z,100.00
2022-09-24T21:23:45.756Z,100.00
2022-09-24T21:26:18.560Z,100.00
2022-09-24T21:28:49.616Z,100.00
2022-09-24T21:31:28.776Z,100.00
2022-09-24T21:33:59.179Z,100.00
2022-09-24T21:36:31.777Z,100.00
2022-09-24T21:39:03.692Z,100.00
2022-09-24T21:41:35.301Z,100.00
2022-09-24T21:44:05.995Z,100.00
2022-09-24T21:46:40.553Z,100.00
2022-09-24T21:49:10.442Z,100.00
2022-09-24T21:51:43.478Z,100.00
2022-09-24T21:54:17.585Z,100.00
2022-09-24T21:56:48.244Z,100.00
2022-09-24T21:59:32.076Z,100.00
2022-09-24T22:02:05.384Z,100.00
2022-09-24T22:04:37.221Z,100.00
2022-09-24T22:07:06.898Z,100.00
2022-09-24T22:09:36.766Z,100.00
2022-09-24T22:12:07.520Z,100.00
2022-09-24T22:14:38.183Z,100.00
2022-09-24T22:17:11.165Z,100.00
2022-09-24T22:19:41.044Z,100.00
2022-09-24T22:22:10.684Z,100.00
2022-09-24T22:24:40.411Z,99.92
2022-09-24T22:27:10.301Z,100.00
2022-09-24T22:29:41.057Z,100.00
2022-09-24T22:32:15.310Z,100.00
2022-09-24T22:34:58.501Z,100.00
2022-09-24T22:37:32.242Z,100.00
2022-09-24T22:40:02.330Z,100.00
2022-09-24T22:42:33.073Z,100.00
2022-09-24T22:45:06.554Z,99.74
2022-09-24T22:47:42.757Z,98.12
2022-09-24T22:50:12.999Z,98.76
2022-09-24T22:52:46.083Z,98.25
2022-09-24T22:55:15.777Z,98.23
2022-09-24T22:57:45.447Z,99.17
2022-09-24T23:00:18.950Z,98.68
2022-09-24T23:02:51.289Z,98.98
2022-09-24T23:05:22.157Z,98.91
2022-09-24T23:07:55.052Z,99.01
2022-09-24T23:10:30.138Z,98.48
2022-09-24T23:13:03.065Z,98.08
2022-09-24T23:15:36.065Z,99.46
2022-09-24T23:18:08.481Z,99.53
2022-09-24T23:20:38.141Z,99.69
2022-09-24T23:23:07.867Z,99.12
2022-09-24T23:25:38.633Z,100.00
2022-09-24T23:28:09.314Z,99.50
2022-09-24T23:30:39.094Z,99.15
2022-09-24T23:33:11.424Z,98.63
2022-09-24T23:35:41.121Z,98.96
2022-09-24T23:38:12.233Z,99.20
2022-09-24T23:40:42.033Z,98.79
2022-09-24T23:43:13.031Z,99.49
2022-09-24T23:45:42.818Z,99.33
2022-09-24T23:48:18.055Z,99.35
2022-09-24T23:50:47.915Z,99.80
2022-09-24T23:53:19.299Z,99.60
2022-09-24T23:55:50.175Z,99.25
2022-09-24T23:58:22.658Z,99.52
